sensor_id;sensor_type;location;lat;lon;timestamp;P1;durP1;ratioP1;P2;durP2;ratioP2
57375;SDS011;44805;45.048;5.062;2023-01-15T00:08:52;4.38;;;1.90;;
57375;SDS011;44805;45.048;5.062;2023-01-15T00:11:19;6.93;;;2.03;;
57375;SDS011;44805;45.048;5.062;2023-01-15T00:13:45;4.88;;;1.80;;
57375;SDS011;44805;45.048;5.062;2023-01-15T00:18:42;6.63;;;2.05;;
57375;SDS011;44805;45.048;5.062;2023-01-15T00:21:15;7.70;;;2.03;;
57375;SDS011;44805;45.048;5.062;2023-01-15T00:23:41;8.13;;;2.50;;
57375;SDS011;44805;45.048;5.062;2023-01-15T00:26:29;5.22;;;2.65;;
57375;SDS011;44805;45.048;5.062;2023-01-15T00:29:06;6.18;;;1.95;;
57375;SDS011;44805;45.048;5.062;2023-01-15T00:31:32;9.15;;;2.42;;
57375;SDS011;44805;45.048;5.062;2023-01-15T00:33:59;6.20;;;1.85;;
57375;SDS011;44805;45.048;5.062;2023-01-15T00:36:25;7.57;;;2.05;;
57375;SDS011;44805;45.048;5.062;2023-01-15T00:38:51;10.30;;;3.20;;
57375;SDS011;44805;45.048;5.062;2023-01-15T00:41:16;13.00;;;2.95;;
57375;SDS011;44805;45.048;5.062;2023-01-15T00:43:42;8.20;;;2.45;;
57375;SDS011;44805;45.048;5.062;2023-01-15T00:46:08;5.35;;;2.10;;
57375;SDS011;44805;45.048;5.062;2023-01-15T00:48:34;9.07;;;2.50;;
57375;SDS011;44805;45.048;5.062;2023-01-15T00:51:00;6.93;;;2.50;;
57375;SDS011;44805;45.048;5.062;2023-01-15T00:53:26;6.05;;;2.28;;
57375;SDS011;44805;45.048;5.062;2023-01-15T00:55:52;7.97;;;3.13;;
57375;SDS011;44805;45.048;5.062;2023-01-15T01:00:55;8.38;;;2.53;;
57375;SDS011;44805;45.048;5.062;2023-01-15T01:03:22;6.38;;;2.70;;
57375;SDS011;44805;45.048;5.062;2023-01-15T01:05:48;7.10;;;2.53;;
57375;SDS011;44805;45.048;5.062;2023-01-15T01:08:14;8.57;;;2.80;;
57375;SDS011;44805;45.048;5.062;2023-01-15T01:10:40;11.77;;;3.25;;
57375;SDS011;44805;45.048;5.062;2023-01-15T01:13:05;10.55;;;2.75;;
57375;SDS011;44805;45.048;5.062;2023-01-15T01:15:34;7.53;;;3.53;;
57375;SDS011;44805;45.048;5.062;2023-01-15T01:20:26;9.40;;;3.00;;
57375;SDS011;44805;45.048;5.062;2023-01-15T01:22:53;6.15;;;2.53;;
57375;SDS011;44805;45.048;5.062;2023-01-15T01:25:19;7.38;;;2.28;;
57375;SDS011;44805;45.048;5.062;2023-01-15T01:27:45;8.18;;;3.30;;
57375;SDS011;44805;45.048;5.062;2023-01-15T01:30:11;7.22;;;2.70;;
57375;SDS011;44805;45.048;5.062;2023-01-15T01:32:37;6.97;;;2.90;;
57375;SDS011;44805;45.048;5.062;2023-01-15T01:35:03;8.90;;;2.70;;
57375;SDS011;44805;45.048;5.062;2023-01-15T01:37:29;6.20;;;2.10;;
57375;SDS011;44805;45.048;5.062;2023-01-15T01:39:54;5.63;;;2.05;;
57375;SDS011;44805;45.048;5.062;2023-01-15T01:42:22;7.22;;;2.13;;
57375;SDS011;44805;45.048;5.062;2023-01-15T01:47:17;10.05;;;2.45;;
57375;SDS011;44805;45.048;5.062;2023-01-15T01:49:48;10.80;;;2.78;;
57375;SDS011;44805;45.048;5.062;2023-01-15T01:52:20;4.63;;;2.05;;
57375;SDS011;44805;45.048;5.062;2023-01-15T01:54:50;7.57;;;2.40;;
57375;SDS011;44805;45.048;5.062;2023-01-15T01:57:17;11.52;;;3.10;;
57375;SDS011;44805;45.048;5.062;2023-01-15T01:59:45;9.77;;;3.17;;
57375;SDS011;44805;45.048;5.062;2023-01-15T02:02:12;5.90;;;2.65;;
57375;SDS011;44805;45.048;5.062;2023-01-15T02:04:44;9.73;;;3.10;;
57375;SDS011;44805;45.048;5.062;2023-01-15T02:07:10;8.10;;;3.22;;
57375;SDS011;44805;45.048;5.062;2023-01-15T02:09:36;9.80;;;3.75;;
57375;SDS011;44805;45.048;5.062;2023-01-15T02:12:07;8.82;;;3.70;;
57375;SDS011;44805;45.048;5.062;2023-01-15T02:14:41;9.63;;;3.83;;
57375;SDS011;44805;45.048;5.062;2023-01-15T02:17:16;7.50;;;2.90;;
57375;SDS011;44805;45.048;5.062;2023-01-15T02:20:05;8.85;;;3.47;;
57375;SDS011;44805;45.048;5.062;2023-01-15T02:22:48;8.20;;;3.17;;
57375;SDS011;44805;45.048;5.062;2023-01-15T02:25:45;10.80;;;3.65;;
57375;SDS011;44805;45.048;5.062;2023-01-15T02:28:27;9.15;;;3.40;;
57375;SDS011;44805;45.048;5.062;2023-01-15T02:31:19;9.05;;;3.88;;
57375;SDS011;44805;45.048;5.062;2023-01-15T02:34:03;11.75;;;3.60;;
57375;SDS011;44805;45.048;5.062;2023-01-15T02:36:33;9.82;;;3.25;;
57375;SDS011;44805;45.048;5.062;2023-01-15T02:39:02;10.55;;;4.20;;
57375;SDS011;44805;45.048;5.062;2023-01-15T02:41:45;6.85;;;3.38;;
57375;SDS011;44805;45.048;5.062;2023-01-15T02:44:17;8.85;;;3.45;;
57375;SDS011;44805;45.048;5.062;2023-01-15T02:46:46;9.75;;;3.92;;
57375;SDS011;44805;45.048;5.062;2023-01-15T02:49:14;9.57;;;3.88;;
57375;SDS011;44805;45.048;5.062;2023-01-15T02:51:46;9.90;;;4.03;;
57375;SDS011;44805;45.048;5.062;2023-01-15T02:54:18;11.15;;;4.30;;
57375;SDS011;44805;45.048;5.062;2023-01-15T02:56:47;12.80;;;3.97;;
57375;SDS011;44805;45.048;5.062;2023-01-15T02:59:22;8.30;;;3.95;;
57375;SDS011;44805;45.048;5.062;2023-01-15T03:02:10;9.20;;;3.78;;
57375;SDS011;44805;45.048;5.062;2023-01-15T03:04:40;11.68;;;4.40;;
57375;SDS011;44805;45.048;5.062;2023-01-15T03:07:29;8.55;;;3.67;;
57375;SDS011;44805;45.048;5.062;2023-01-15T03:10:00;7.82;;;3.42;;
57375;SDS011;44805;45.048;5.062;2023-01-15T03:14:59;9.25;;;3.55;;
57375;SDS011;44805;45.048;5.062;2023-01-15T03:17:34;8.00;;;3.38;;
57375;SDS011;44805;45.048;5.062;2023-01-15T03:20:08;10.57;;;3.63;;
57375;SDS011;44805;45.048;5.062;2023-01-15T03:22:43;10.48;;;4.18;;
57375;SDS011;44805;45.048;5.062;2023-01-15T03:25:23;10.55;;;3.70;;
57375;SDS011;44805;45.048;5.062;2023-01-15T03:27:51;11.18;;;3.55;;
57375;SDS011;44805;45.048;5.062;2023-01-15T03:30:20;7.93;;;4.00;;
57375;SDS011;44805;45.048;5.062;2023-01-15T03:32:46;12.10;;;4.05;;
57375;SDS011;44805;45.048;5.062;2023-01-15T03:38:13;9.20;;;3.70;;
57375;SDS011;44805;45.048;5.062;2023-01-15T03:40:46;12.00;;;3.95;;
57375;SDS011;44805;45.048;5.062;2023-01-15T03:51:05;11.20;;;4.25;;
57375;SDS011;44805;45.048;5.062;2023-01-15T03:53:38;11.27;;;3.60;;
57375;SDS011;44805;45.048;5.062;2023-01-15T03:56:21;11.23;;;3.58;;
57375;SDS011;44805;45.048;5.062;2023-01-15T05:28:38;7.15;;;2.65;;
57375;SDS011;44805;45.048;5.062;2023-01-15T05:31:05;6.20;;;2.25;;
57375;SDS011;44805;45.048;5.062;2023-01-15T05:33:31;8.30;;;3.03;;
57375;SDS011;44805;45.048;5.062;2023-01-15T05:36:01;7.43;;;3.08;;
57375;SDS011;44805;45.048;5.062;2023-01-15T05:38:31;10.55;;;3.28;;
57375;SDS011;44805;45.048;5.062;2023-01-15T05:40:57;7.13;;;3.25;;
57375;SDS011;44805;45.048;5.062;2023-01-15T05:43:23;11.05;;;3.70;;
57375;SDS011;44805;45.048;5.062;2023-01-15T05:45:54;7.70;;;2.92;;
57375;SDS011;44805;45.048;5.062;2023-01-15T05:48:19;8.13;;;3.00;;
57375;SDS011;44805;45.048;5.062;2023-01-15T05:50:45;7.15;;;3.10;;
57375;SDS011;44805;45.048;5.062;2023-01-15T05:53:10;8.90;;;2.88;;
57375;SDS011;44805;45.048;5.062;2023-01-15T05:55:35;6.32;;;2.88;;
57375;SDS011;44805;45.048;5.062;2023-01-15T05:58:01;7.43;;;3.42;;
57375;SDS011;44805;45.048;5.062;2023-01-15T06:00:29;9.73;;;3.75;;
57375;SDS011;44805;45.048;5.062;2023-01-15T06:02:54;10.23;;;3.45;;
57375;SDS011;44805;45.048;5.062;2023-01-15T06:05:20;7.93;;;3.35;;
57375;SDS011;44805;45.048;5.062;2023-01-15T06:07:49;9.68;;;3.33;;
57375;SDS011;44805;45.048;5.062;2023-01-15T06:10:16;8.77;;;3.63;;
57375;SDS011;44805;45.048;5.062;2023-01-15T06:12:42;10.73;;;3.45;;
57375;SDS011;44805;45.048;5.062;2023-01-15T06:15:08;9.15;;;2.95;;
57375;SDS011;44805;45.048;5.062;2023-01-15T06:17:35;9.48;;;3.83;;
57375;SDS011;44805;45.048;5.062;2023-01-15T06:20:00;7.22;;;3.13;;
57375;SDS011;44805;45.048;5.062;2023-01-15T06:22:26;9.77;;;3.90;;
57375;SDS011;44805;45.048;5.062;2023-01-15T06:24:51;13.20;;;3.83;;
57375;SDS011;44805;45.048;5.062;2023-01-15T06:27:17;8.23;;;3.78;;
57375;SDS011;44805;45.048;5.062;2023-01-15T06:29:42;10.90;;;4.35;;
57375;SDS011;44805;45.048;5.062;2023-01-15T06:32:08;10.50;;;4.38;;
57375;SDS011;44805;45.048;5.062;2023-01-15T06:34:33;9.88;;;3.47;;
57375;SDS011;44805;45.048;5.062;2023-01-15T06:37:00;9.90;;;3.50;;
57375;SDS011;44805;45.048;5.062;2023-01-15T06:39:25;10.60;;;3.40;;
57375;SDS011;44805;45.048;5.062;2023-01-15T07:02:32;12.00;;;4.05;;
57375;SDS011;44805;45.048;5.062;2023-01-15T07:04:58;8.95;;;2.97;;
57375;SDS011;44805;45.048;5.062;2023-01-15T07:07:23;10.55;;;3.33;;
57375;SDS011;44805;45.048;5.062;2023-01-15T07:09:49;10.73;;;4.32;;
57375;SDS011;44805;45.048;5.062;2023-01-15T07:12:14;9.85;;;4.15;;
57375;SDS011;44805;45.048;5.062;2023-01-15T07:14:41;8.43;;;3.65;;
57375;SDS011;44805;45.048;5.062;2023-01-15T07:17:06;9.95;;;3.95;;
57375;SDS011;44805;45.048;5.062;2023-01-15T07:19:32;13.10;;;4.40;;
57375;SDS011;44805;45.048;5.062;2023-01-15T07:21:57;10.00;;;4.22;;
57375;SDS011;44805;45.048;5.062;2023-01-15T07:24:23;11.20;;;4.57;;
57375;SDS011;44805;45.048;5.062;2023-01-15T07:29:21;10.35;;;4.75;;
57375;SDS011;44805;45.048;5.062;2023-01-15T07:31:47;12.15;;;5.05;;
57375;SDS011;44805;45.048;5.062;2023-01-15T07:34:13;9.05;;;4.05;;
57375;SDS011;44805;45.048;5.062;2023-01-15T07:36:38;10.68;;;4.82;;
57375;SDS011;44805;45.048;5.062;2023-01-15T07:39:04;13.05;;;5.13;;
57375;SDS011;44805;45.048;5.062;2023-01-15T07:41:30;12.63;;;4.90;;
57375;SDS011;44805;45.048;5.062;2023-01-15T07:44:04;9.45;;;3.55;;
57375;SDS011;44805;45.048;5.062;2023-01-15T07:46:48;10.65;;;4.50;;
57375;SDS011;44805;45.048;5.062;2023-01-15T07:49:32;13.35;;;5.30;;
57375;SDS011;44805;45.048;5.062;2023-01-15T07:52:18;11.93;;;4.13;;
57375;SDS011;44805;45.048;5.062;2023-01-15T07:54:46;15.23;;;5.22;;
57375;SDS011;44805;45.048;5.062;2023-01-15T07:57:13;11.15;;;4.90;;
57375;SDS011;44805;45.048;5.062;2023-01-15T07:59:41;12.93;;;5.97;;
57375;SDS011;44805;45.048;5.062;2023-01-15T08:02:07;10.27;;;4.82;;
57375;SDS011;44805;45.048;5.062;2023-01-15T08:04:33;13.55;;;5.93;;
57375;SDS011;44805;45.048;5.062;2023-01-15T08:07:07;12.85;;;5.13;;
57375;SDS011;44805;45.048;5.062;2023-01-15T08:09:33;13.13;;;4.90;;
57375;SDS011;44805;45.048;5.062;2023-01-15T08:11:59;12.35;;;5.20;;
57375;SDS011;44805;45.048;5.062;2023-01-15T08:14:48;13.68;;;5.88;;
57375;SDS011;44805;45.048;5.062;2023-01-15T08:17:33;8.38;;;3.95;;
57375;SDS011;44805;45.048;5.062;2023-01-15T08:20:00;13.10;;;5.90;;
57375;SDS011;44805;45.048;5.062;2023-01-15T08:25:00;9.70;;;4.63;;
57375;SDS011;44805;45.048;5.062;2023-01-15T08:27:25;13.77;;;5.90;;
57375;SDS011;44805;45.048;5.062;2023-01-15T08:29:51;9.40;;;4.63;;
57375;SDS011;44805;45.048;5.062;2023-01-15T08:32:17;11.88;;;5.22;;
57375;SDS011;44805;45.048;5.062;2023-01-15T08:34:46;11.50;;;4.70;;
57375;SDS011;44805;45.048;5.062;2023-01-15T08:37:37;10.80;;;4.90;;
57375;SDS011;44805;45.048;5.062;2023-01-15T08:45:12;13.50;;;6.35;;
57375;SDS011;44805;45.048;5.062;2023-01-15T08:47:38;10.65;;;5.78;;
57375;SDS011;44805;45.048;5.062;2023-01-15T08:50:04;11.75;;;5.65;;
57375;SDS011;44805;45.048;5.062;2023-01-15T08:52:31;12.02;;;5.82;;
57375;SDS011;44805;45.048;5.062;2023-01-15T08:54:57;13.07;;;6.05;;
57375;SDS011;44805;45.048;5.062;2023-01-15T08:57:22;9.57;;;5.00;;
57375;SDS011;44805;45.048;5.062;2023-01-15T08:59:47;14.07;;;6.72;;
57375;SDS011;44805;45.048;5.062;2023-01-15T09:02:13;13.77;;;6.28;;
57375;SDS011;44805;45.048;5.062;2023-01-15T09:04:39;15.63;;;6.07;;
57375;SDS011;44805;45.048;5.062;2023-01-15T09:07:05;14.82;;;6.35;;
57375;SDS011;44805;45.048;5.062;2023-01-15T09:12:06;14.07;;;6.82;;
57375;SDS011;44805;45.048;5.062;2023-01-15T09:14:31;13.63;;;5.83;;
57375;SDS011;44805;45.048;5.062;2023-01-15T09:19:32;12.43;;;5.72;;
57375;SDS011;44805;45.048;5.062;2023-01-15T09:24:35;15.55;;;6.93;;
57375;SDS011;44805;45.048;5.062;2023-01-15T09:27:01;17.40;;;7.55;;
57375;SDS011;44805;45.048;5.062;2023-01-15T09:29:26;15.45;;;7.65;;
57375;SDS011;44805;45.048;5.062;2023-01-15T10:17:46;10.23;;;4.70;;
57375;SDS011;44805;45.048;5.062;2023-01-15T10:37:11;19.90;;;10.18;;
57375;SDS011;44805;45.048;5.062;2023-01-15T10:47:39;17.52;;;9.15;;
57375;SDS011;44805;45.048;5.062;2023-01-15T10:52:46;18.38;;;9.10;;
57375;SDS011;44805;45.048;5.062;2023-01-15T10:55:27;18.17;;;9.50;;
57375;SDS011;44805;45.048;5.062;2023-01-15T10:58:16;16.60;;;9.38;;
57375;SDS011;44805;45.048;5.062;2023-01-15T11:01:14;20.27;;;9.60;;
57375;SDS011;44805;45.048;5.062;2023-01-15T11:03:43;18.65;;;9.50;;
57375;SDS011;44805;45.048;5.062;2023-01-15T11:06:14;17.70;;;10.00;;
57375;SDS011;44805;45.048;5.062;2023-01-15T11:08:43;17.35;;;10.65;;
57375;SDS011;44805;45.048;5.062;2023-01-15T11:11:23;17.58;;;9.20;;
57375;SDS011;44805;45.048;5.062;2023-01-15T11:17:21;16.70;;;9.40;;
57375;SDS011;44805;45.048;5.062;2023-01-15T11:23:11;17.45;;;8.95;;
57375;SDS011;44805;45.048;5.062;2023-01-15T11:25:50;16.73;;;8.35;;
57375;SDS011;44805;45.048;5.062;2023-01-15T11:28:17;16.13;;;8.02;;
57375;SDS011;44805;45.048;5.062;2023-01-15T11:30:55;16.13;;;8.90;;
57375;SDS011;44805;45.048;5.062;2023-01-15T11:33:25;15.65;;;7.55;;
57375;SDS011;44805;45.048;5.062;2023-01-15T11:35:53;12.23;;;6.05;;
57375;SDS011;44805;45.048;5.062;2023-01-15T11:38:24;15.15;;;7.30;;
57375;SDS011;44805;45.048;5.062;2023-01-15T11:40:58;13.38;;;6.75;;
57375;SDS011;44805;45.048;5.062;2023-01-15T11:43:27;12.63;;;6.30;;
57375;SDS011;44805;45.048;5.062;2023-01-15T11:46:33;8.82;;;4.88;;
57375;SDS011;44805;45.048;5.062;2023-01-15T11:49:17;7.47;;;3.28;;
57375;SDS011;44805;45.048;5.062;2023-01-15T11:55:14;9.43;;;5.10;;
57375;SDS011;44805;45.048;5.062;2023-01-15T12:03:31;3.47;;;1.73;;
57375;SDS011;44805;45.048;5.062;2023-01-15T12:06:20;4.40;;;2.10;;
57375;SDS011;44805;45.048;5.062;2023-01-15T12:13:00;4.05;;;2.42;;
57375;SDS011;44805;45.048;5.062;2023-01-15T12:26:59;2.28;;;1.25;;
57375;SDS011;44805;45.048;5.062;2023-01-15T12:29:50;2.58;;;1.08;;
57375;SDS011;44805;45.048;5.062;2023-01-15T12:32:42;2.13;;;1.00;;
57375;SDS011;44805;45.048;5.062;2023-01-15T12:35:30;2.35;;;0.90;;
57375;SDS011;44805;45.048;5.062;2023-01-15T12:38:17;2.00;;;0.80;;
57375;SDS011;44805;45.048;5.062;2023-01-15T12:40:58;0.38;;;0.30;;
57375;SDS011;44805;45.048;5.062;2023-01-15T12:43:27;0.40;;;0.40;;
57375;SDS011;44805;45.048;5.062;2023-01-15T12:49:42;3.75;;;1.65;;
57375;SDS011;44805;45.048;5.062;2023-01-15T12:52:19;5.32;;;1.75;;
57375;SDS011;44805;45.048;5.062;2023-01-15T12:57:45;3.72;;;1.63;;
57375;SDS011;44805;45.048;5.062;2023-01-15T13:03:02;4.28;;;1.80;;
57375;SDS011;44805;45.048;5.062;2023-01-15T13:06:04;4.35;;;1.60;;
57375;SDS011;44805;45.048;5.062;2023-01-15T13:11:30;3.53;;;1.73;;
57375;SDS011;44805;45.048;5.062;2023-01-15T13:13:56;6.82;;;3.03;;
57375;SDS011;44805;45.048;5.062;2023-01-15T13:19:18;6.40;;;2.63;;
57375;SDS011;44805;45.048;5.062;2023-01-15T13:22:04;6.03;;;2.60;;
57375;SDS011;44805;45.048;5.062;2023-01-15T13:33:42;4.05;;;1.88;;
57375;SDS011;44805;45.048;5.062;2023-01-15T13:36:24;2.83;;;1.20;;
57375;SDS011;44805;45.048;5.062;2023-01-15T13:38:58;4.47;;;1.40;;
57375;SDS011;44805;45.048;5.062;2023-01-15T13:41:31;2.30;;;1.02;;
57375;SDS011;44805;45.048;5.062;2023-01-15T13:44:18;1.08;;;0.65;;
57375;SDS011;44805;45.048;5.062;2023-01-15T13:47:05;1.35;;;0.77;;
57375;SDS011;44805;45.048;5.062;2023-01-15T13:49:40;1.52;;;0.90;;
57375;SDS011;44805;45.048;5.062;2023-01-15T13:52:26;3.75;;;1.55;;
57375;SDS011;44805;45.048;5.062;2023-01-15T13:54:57;3.88;;;1.10;;
57375;SDS011;44805;45.048;5.062;2023-01-15T13:57:32;3.63;;;1.40;;
57375;SDS011;44805;45.048;5.062;2023-01-15T13:59:59;4.38;;;1.80;;
57375;SDS011;44805;45.048;5.062;2023-01-15T14:02:29;3.15;;;1.48;;
57375;SDS011;44805;45.048;5.062;2023-01-15T14:05:52;3.47;;;1.80;;
57375;SDS011;44805;45.048;5.062;2023-01-15T14:07:58;4.05;;;1.50;;
57375;SDS011;44805;45.048;5.062;2023-01-15T14:19:28;2.55;;;1.27;;
57375;SDS011;44805;45.048;5.062;2023-01-15T14:22:06;3.22;;;1.33;;
57375;SDS011;44805;45.048;5.062;2023-01-15T14:35:43;2.70;;;1.20;;
57375;SDS011;44805;45.048;5.062;2023-01-15T14:38:15;2.70;;;1.17;;
57375;SDS011;44805;45.048;5.062;2023-01-15T14:40:54;4.43;;;1.65;;
57375;SDS011;44805;45.048;5.062;2023-01-15T14:43:27;3.58;;;1.52;;
57375;SDS011;44805;45.048;5.062;2023-01-15T14:45:54;3.15;;;1.25;;
57375;SDS011;44805;45.048;5.062;2023-01-15T14:50:52;3.15;;;1.20;;
57375;SDS011;44805;45.048;5.062;2023-01-15T14:53:22;2.15;;;1.17;;
57375;SDS011;44805;45.048;5.062;2023-01-15T15:01:33;4.85;;;1.80;;
57375;SDS011;44805;45.048;5.062;2023-01-15T15:07:06;4.03;;;1.77;;
57375;SDS011;44805;45.048;5.062;2023-01-15T15:23:19;2.03;;;1.00;;
57375;SDS011;44805;45.048;5.062;2023-01-15T15:25:57;2.78;;;1.08;;
57375;SDS011;44805;45.048;5.062;2023-01-15T15:28:25;3.70;;;1.20;;
57375;SDS011;44805;45.048;5.062;2023-01-15T15:33:45;2.42;;;0.70;;
57375;SDS011;44805;45.048;5.062;2023-01-15T15:36:10;1.75;;;0.80;;
57375;SDS011;44805;45.048;5.062;2023-01-15T15:38:36;1.67;;;0.70;;
57375;SDS011;44805;45.048;5.062;2023-01-15T15:41:06;2.38;;;0.80;;
57375;SDS011;44805;45.048;5.062;2023-01-15T15:43:53;2.00;;;0.93;;
57375;SDS011;44805;45.048;5.062;2023-01-15T15:46:46;1.55;;;0.85;;
57375;SDS011;44805;45.048;5.062;2023-01-15T15:49:39;2.08;;;1.05;;
57375;SDS011;44805;45.048;5.062;2023-01-15T15:52:42;3.28;;;1.13;;
57375;SDS011;44805;45.048;5.062;2023-01-15T15:55:00;2.28;;;0.95;;
57375;SDS011;44805;45.048;5.062;2023-01-15T15:57:30;3.00;;;1.05;;
57375;SDS011;44805;45.048;5.062;2023-01-15T15:59:58;3.88;;;1.20;;
57375;SDS011;44805;45.048;5.062;2023-01-15T16:02:37;1.80;;;1.00;;
57375;SDS011;44805;45.048;5.062;2023-01-15T16:07:42;8.55;;;2.85;;
57375;SDS011;44805;45.048;5.062;2023-01-15T16:10:12;6.43;;;2.53;;
57375;SDS011;44805;45.048;5.062;2023-01-15T16:12:44;7.00;;;3.35;;
57375;SDS011;44805;45.048;5.062;2023-01-15T16:15:16;8.07;;;4.35;;
57375;SDS011;44805;45.048;5.062;2023-01-15T16:17:43;7.28;;;3.78;;
57375;SDS011;44805;45.048;5.062;2023-01-15T16:20:13;7.13;;;3.10;;
57375;SDS011;44805;45.048;5.062;2023-01-15T16:22:43;6.70;;;3.08;;
57375;SDS011;44805;45.048;5.062;2023-01-15T16:27:59;9.50;;;4.13;;
57375;SDS011;44805;45.048;5.062;2023-01-15T16:30:26;17.58;;;7.35;;
57375;SDS011;44805;45.048;5.062;2023-01-15T16:32:54;12.07;;;6.18;;
57375;SDS011;44805;45.048;5.062;2023-01-15T16:35:25;13.23;;;5.32;;
57375;SDS011;44805;45.048;5.062;2023-01-15T16:37:55;5.85;;;2.70;;
57375;SDS011;44805;45.048;5.062;2023-01-15T16:40:31;5.75;;;2.05;;
57375;SDS011;44805;45.048;5.062;2023-01-15T16:45:33;7.40;;;2.38;;
57375;SDS011;44805;45.048;5.062;2023-01-15T16:50:48;5.90;;;2.40;;
57375;SDS011;44805;45.048;5.062;2023-01-15T16:53:28;5.53;;;2.20;;
57375;SDS011;44805;45.048;5.062;2023-01-15T16:56:02;4.72;;;1.90;;
57375;SDS011;44805;45.048;5.062;2023-01-15T16:58:38;5.65;;;2.10;;
57375;SDS011;44805;45.048;5.062;2023-01-15T17:04:15;7.35;;;3.33;;
57375;SDS011;44805;45.048;5.062;2023-01-15T17:06:41;4.07;;;2.08;;
57375;SDS011;44805;45.048;5.062;2023-01-15T17:09:09;4.20;;;1.80;;
57375;SDS011;44805;45.048;5.062;2023-01-15T17:11:38;5.75;;;2.05;;
57375;SDS011;44805;45.048;5.062;2023-01-15T17:14:07;4.90;;;1.77;;
57375;SDS011;44805;45.048;5.062;2023-01-15T17:20:19;5.63;;;2.05;;
57375;SDS011;44805;45.048;5.062;2023-01-15T17:22:48;5.35;;;2.20;;
57375;SDS011;44805;45.048;5.062;2023-01-15T17:27:46;5.55;;;2.42;;
57375;SDS011;44805;45.048;5.062;2023-01-15T17:30:12;6.05;;;2.05;;
57375;SDS011;44805;45.048;5.062;2023-01-15T17:32:38;5.35;;;2.15;;
57375;SDS011;44805;45.048;5.062;2023-01-15T17:35:06;5.97;;;2.33;;
57375;SDS011;44805;45.048;5.062;2023-01-15T17:37:43;5.88;;;2.45;;
57375;SDS011;44805;45.048;5.062;2023-01-15T17:40:09;5.38;;;1.73;;
57375;SDS011;44805;45.048;5.062;2023-01-15T17:42:35;4.70;;;2.08;;
57375;SDS011;44805;45.048;5.062;2023-01-15T17:45:00;3.97;;;1.95;;
57375;SDS011;44805;45.048;5.062;2023-01-15T17:50:16;5.32;;;2.10;;
57375;SDS011;44805;45.048;5.062;2023-01-15T17:52:42;11.75;;;5.18;;
57375;SDS011;44805;45.048;5.062;2023-01-15T17:55:19;14.88;;;7.05;;
57375;SDS011;44805;45.048;5.062;2023-01-15T17:58:16;7.85;;;3.60;;
57375;SDS011;44805;45.048;5.062;2023-01-15T18:11:13;9.05;;;3.75;;
57375;SDS011;44805;45.048;5.062;2023-01-15T18:13:45;12.27;;;6.70;;
57375;SDS011;44805;45.048;5.062;2023-01-15T18:19:35;20.58;;;10.07;;
57375;SDS011;44805;45.048;5.062;2023-01-15T18:25:31;16.50;;;8.73;;
57375;SDS011;44805;45.048;5.062;2023-01-15T18:28:41;16.02;;;8.63;;
57375;SDS011;44805;45.048;5.062;2023-01-15T18:31:17;15.73;;;8.93;;
57375;SDS011;44805;45.048;5.062;2023-01-15T18:34:13;14.60;;;7.88;;
57375;SDS011;44805;45.048;5.062;2023-01-15T18:36:44;12.75;;;7.68;;
57375;SDS011;44805;45.048;5.062;2023-01-15T18:39:23;11.52;;;6.95;;
57375;SDS011;44805;45.048;5.062;2023-01-15T18:41:48;11.50;;;6.70;;
57375;SDS011;44805;45.048;5.062;2023-01-15T18:44:23;12.38;;;7.90;;
57375;SDS011;44805;45.048;5.062;2023-01-15T18:47:20;14.18;;;7.82;;
57375;SDS011;44805;45.048;5.062;2023-01-15T18:49:51;14.02;;;8.77;;
57375;SDS011;44805;45.048;5.062;2023-01-15T18:52:34;14.82;;;8.40;;
57375;SDS011;44805;45.048;5.062;2023-01-15T18:55:14;20.83;;;9.52;;
57375;SDS011;44805;45.048;5.062;2023-01-15T19:02:00;25.58;;;12.30;;
57375;SDS011;44805;45.048;5.062;2023-01-15T19:04:40;37.80;;;17.48;;
57375;SDS011;44805;45.048;5.062;2023-01-15T19:07:09;42.00;;;19.75;;
57375;SDS011;44805;45.048;5.062;2023-01-15T19:09:44;27.63;;;13.68;;
57375;SDS011;44805;45.048;5.062;2023-01-15T19:13:00;19.60;;;10.70;;
57375;SDS011;44805;45.048;5.062;2023-01-15T19:23:00;20.13;;;10.20;;
57375;SDS011;44805;45.048;5.062;2023-01-15T19:26:23;15.98;;;9.57;;
57375;SDS011;44805;45.048;5.062;2023-01-15T19:32:32;15.82;;;9.65;;
57375;SDS011;44805;45.048;5.062;2023-01-15T19:35:21;24.70;;;13.32;;
57375;SDS011;44805;45.048;5.062;2023-01-15T19:38:02;18.85;;;11.15;;
57375;SDS011;44805;45.048;5.062;2023-01-15T19:44:42;18.60;;;10.88;;
57375;SDS011;44805;45.048;5.062;2023-01-15T20:30:35;22.80;;;11.20;;
57375;SDS011;44805;45.048;5.062;2023-01-15T22:06:24;13.82;;;6.28;;
57375;SDS011;44805;45.048;5.062;2023-01-15T22:08:52;13.88;;;6.95;;
57375;SDS011;44805;45.048;5.062;2023-01-15T22:11:18;13.00;;;6.43;;
57375;SDS011;44805;45.048;5.062;2023-01-15T22:13:47;12.57;;;5.82;;
57375;SDS011;44805;45.048;5.062;2023-01-15T22:16:14;12.20;;;6.22;;
57375;SDS011;44805;45.048;5.062;2023-01-15T22:18:47;20.95;;;9.98;;
57375;SDS011;44805;45.048;5.062;2023-01-15T22:21:12;14.13;;;7.47;;
57375;SDS011;44805;45.048;5.062;2023-01-15T22:23:41;11.75;;;6.53;;
57375;SDS011;44805;45.048;5.062;2023-01-15T22:28:44;11.20;;;5.35;;
57375;SDS011;44805;45.048;5.062;2023-01-15T22:31:10;12.30;;;5.93;;
57375;SDS011;44805;45.048;5.062;2023-01-15T22:33:35;10.95;;;5.95;;
57375;SDS011;44805;45.048;5.062;2023-01-15T22:36:01;12.70;;;5.90;;
57375;SDS011;44805;45.048;5.062;2023-01-15T22:38:28;10.95;;;5.55;;
57375;SDS011;44805;45.048;5.062;2023-01-15T22:40:56;13.35;;;5.90;;
57375;SDS011;44805;45.048;5.062;2023-01-15T22:43:23;12.35;;;6.30;;
57375;SDS011;44805;45.048;5.062;2023-01-15T22:45:48;12.23;;;5.70;;
57375;SDS011;44805;45.048;5.062;2023-01-15T22:48:20;13.40;;;6.63;;
57375;SDS011;44805;45.048;5.062;2023-01-15T22:50:45;13.27;;;6.47;;
57375;SDS011;44805;45.048;5.062;2023-01-15T22:53:15;12.23;;;6.18;;
57375;SDS011;44805;45.048;5.062;2023-01-15T22:55:58;13.93;;;6.25;;
57375;SDS011;44805;45.048;5.062;2023-01-15T22:58:25;13.52;;;6.72;;
57375;SDS011;44805;45.048;5.062;2023-01-15T23:01:24;13.52;;;6.55;;
57375;SDS011;44805;45.048;5.062;2023-01-15T23:04:32;12.85;;;7.28;;
57375;SDS011;44805;45.048;5.062;2023-01-15T23:09:33;15.05;;;9.00;;
57375;SDS011;44805;45.048;5.062;2023-01-15T23:11:59;30.17;;;16.80;;
57375;SDS011;44805;45.048;5.062;2023-01-15T23:14:25;24.05;;;12.05;;
57375;SDS011;44805;45.048;5.062;2023-01-15T23:16:51;18.58;;;10.55;;
57375;SDS011;44805;45.048;5.062;2023-01-15T23:22:10;23.33;;;12.80;;
57375;SDS011;44805;45.048;5.062;2023-01-15T23:24:36;26.20;;;15.05;;
57375;SDS011;44805;45.048;5.062;2023-01-15T23:27:01;25.67;;;13.98;;
57375;SDS011;44805;45.048;5.062;2023-01-15T23:29:27;23.10;;;12.98;;
57375;SDS011;44805;45.048;5.062;2023-01-15T23:31:52;20.95;;;12.13;;
57375;SDS011;44805;45.048;5.062;2023-01-15T23:34:18;23.13;;;10.68;;
57375;SDS011;44805;45.048;5.062;2023-01-15T23:36:44;22.67;;;11.55;;
57375;SDS011;44805;45.048;5.062;2023-01-15T23:39:09;21.92;;;11.15;;
57375;SDS011;44805;45.048;5.062;2023-01-15T23:41:37;18.10;;;10.27;;
57375;SDS011;44805;45.048;5.062;2023-01-15T23:44:22;19.08;;;10.82;;
57375;SDS011;44805;45.048;5.062;2023-01-15T23:47:06;22.00;;;12.05;;
57375;SDS011;44805;45.048;5.062;2023-01-15T23:49:32;19.63;;;10.65;;
57375;SDS011;44805;45.048;5.062;2023-01-15T23:51:58;23.63;;;11.68;;
57375;SDS011;44805;45.048;5.062;2023-01-15T23:54:26;21.42;;;11.00;;
57375;SDS011;44805;45.048;5.062;2023-01-15T23:56:59;19.25;;;10.88;;
